createdAt,value
2024-04-17T00:00:06.472Z,83.30
2024-04-17T00:00:43.150Z,83.36
2024-04-17T00:01:15.743Z,83.91
2024-04-17T00:01:48.480Z,84.31
2024-04-17T00:02:20.681Z,83.42
2024-04-17T00:02:52.889Z,84.26
2024-04-17T00:03:25.382Z,83.82
2024-04-17T00:03:57.764Z,84.29
2024-04-17T00:04:29.943Z,84.13
2024-04-17T00:05:06.157Z,84.37
2024-04-17T00:05:40.341Z,84.18
2024-04-17T00:06:13.143Z,83.98
2024-04-17T00:06:44.895Z,84.03
2024-04-17T00:07:17.512Z,84.57
2024-04-17T00:07:49.244Z,84.81
2024-04-17T00:08:21.051Z,84.33
2024-04-17T00:08:52.797Z,84.97
2024-04-17T00:09:25.539Z,84.70
2024-04-17T00:09:57.257Z,84.14
2024-04-17T00:10:29.858Z,85.12
2024-04-17T00:11:02.930Z,85.51
2024-04-17T00:11:34.710Z,84.62
2024-04-17T00:12:08.043Z,84.44
2024-04-17T00:12:40.067Z,83.98
2024-04-17T00:13:12.346Z,83.96
2024-04-17T00:13:44.157Z,83.75
2024-04-17T00:14:16.418Z,84.23
2024-04-17T00:14:48.220Z,83.88
2024-04-17T00:15:20.407Z,83.94
2024-04-17T00:15:52.794Z,83.89
2024-04-17T00:16:24.571Z,83.99
2024-04-17T00:16:57.225Z,83.98
2024-04-17T00:17:29.064Z,84.16
2024-04-17T00:18:02.044Z,83.45
2024-04-17T00:18:34.256Z,83.83
2024-04-17T00:19:06.253Z,84.06
2024-04-17T00:19:38.092Z,83.83
2024-04-17T00:20:10.566Z,84.12
2024-04-17T00:20:42.711Z,83.66
2024-04-17T00:21:14.699Z,83.89
2024-04-17T00:21:46.479Z,83.90
2024-04-17T00:22:18.320Z,84.22
2024-04-17T00:22:50.099Z,83.59
2024-04-17T00:23:22.335Z,84.15
2024-04-17T00:23:55.532Z,84.02
2024-04-17T00:24:27.603Z,84.36
2024-04-17T00:24:59.546Z,84.95
2024-04-17T00:25:32.913Z,83.87
2024-04-17T00:26:06.612Z,83.54
2024-04-17T00:26:41.788Z,84.86
2024-04-17T00:27:13.587Z,84.94
2024-04-17T00:27:47.117Z,84.49
2024-04-17T00:28:20.278Z,84.64
2024-04-17T00:28:53.062Z,84.23
2024-04-17T00:29:25.865Z,84.29
2024-04-17T00:29:57.638Z,84.06
2024-04-17T00:30:31.138Z,84.88
2024-04-17T00:31:02.908Z,84.12
2024-04-17T00:31:37.942Z,85.10
2024-04-17T00:32:09.871Z,85.14
2024-04-17T00:32:41.782Z,85.16
2024-04-17T00:33:14.089Z,85.36
2024-04-17T00:33:46.687Z,85.35
2024-04-17T00:34:18.494Z,85.98
2024-04-17T00:34:51.616Z,86.27
2024-04-17T00:35:23.398Z,85.55
2024-04-17T00:35:56.320Z,84.92
2024-04-17T00:36:28.296Z,85.72
2024-04-17T00:37:01.168Z,84.85
2024-04-17T00:37:33.367Z,84.63
2024-04-17T00:38:05.406Z,84.34
2024-04-17T00:38:37.128Z,84.24
2024-04-17T00:39:09.401Z,85.15
2024-04-17T00:39:41.375Z,85.34
2024-04-17T00:40:13.386Z,85.43
2024-04-17T00:40:45.405Z,85.96
2024-04-17T00:41:17.166Z,85.24
2024-04-17T00:41:49.222Z,85.56
2024-04-17T00:42:21.034Z,85.57
2024-04-17T00:42:52.905Z,85.64
2024-04-17T00:43:25.848Z,85.50
2024-04-17T00:43:58.452Z,85.33
2024-04-17T00:44:30.757Z,84.07
2024-04-17T00:45:03.082Z,84.15
2024-04-17T00:45:42.686Z,85.85
2024-04-17T00:46:15.973Z,86.31
2024-04-17T00:46:48.626Z,86.03
2024-04-17T00:47:20.669Z,84.99
2024-04-17T00:47:52.931Z,84.99
2024-04-17T00:48:25.794Z,85.35
2024-04-17T00:48:59.115Z,85.07
2024-04-17T00:49:31.130Z,84.85
2024-04-17T00:50:03.980Z,84.96
2024-04-17T00:50:36.878Z,84.90
2024-04-17T00:51:09.255Z,84.77
2024-04-17T00:51:41.494Z,84.60
2024-04-17T00:52:13.438Z,84.20
2024-04-17T00:52:46.108Z,83.64
2024-04-17T00:53:24.447Z,85.66
2024-04-17T00:53:56.731Z,84.73
2024-04-17T00:54:29.021Z,85.28
2024-04-17T00:55:04.390Z,84.96
2024-04-17T00:55:37.793Z,86.31
2024-04-17T00:56:09.948Z,84.47
2024-04-17T00:56:42.163Z,85.09
2024-04-17T00:57:15.593Z,84.99
2024-04-17T00:57:48.639Z,84.38
2024-04-17T00:58:22.059Z,84.47
2024-04-17T00:58:54.572Z,84.36
2024-04-17T00:59:26.329Z,85.65
2024-04-17T01:00:00.005Z,84.73
2024-04-17T01:00:33.212Z,84.22
2024-04-17T01:01:05.004Z,84.86
2024-04-17T01:01:36.825Z,84.53
2024-04-17T01:02:08.657Z,84.17
2024-04-17T01:02:41.042Z,83.88
2024-04-17T01:03:14.040Z,83.18
2024-04-17T01:03:46.205Z,84.08
2024-04-17T01:04:18.709Z,84.09
2024-04-17T01:04:50.691Z,84.09
2024-04-17T01:05:23.318Z,85.28
2024-04-17T01:05:55.108Z,84.54
2024-04-17T01:06:28.123Z,83.82
2024-04-17T01:07:00.641Z,83.47
2024-04-17T01:07:33.552Z,83.78
2024-04-17T01:08:06.577Z,84.87
2024-04-17T01:08:38.489Z,84.42
2024-04-17T01:09:11.147Z,84.35
2024-04-17T01:09:43.288Z,83.67
2024-04-17T01:10:15.630Z,83.17
2024-04-17T01:11:02.727Z,84.28
2024-04-17T01:11:42.107Z,84.35
2024-04-17T01:12:15.455Z,84.11
2024-04-17T01:12:47.542Z,84.19
2024-04-17T01:13:19.390Z,84.62
2024-04-17T01:13:52.079Z,83.96
2024-04-17T01:14:24.142Z,83.73
2024-04-17T01:14:56.295Z,83.76
2024-04-17T01:15:28.162Z,83.03
2024-04-17T01:16:01.416Z,83.23
2024-04-17T01:16:33.757Z,84.20
2024-04-17T01:17:06.167Z,84.62
2024-04-17T01:17:39.522Z,84.63
2024-04-17T01:18:13.302Z,84.66
2024-04-17T01:18:51.942Z,84.71
2024-04-17T01:19:25.637Z,83.77
2024-04-17T01:19:58.494Z,84.32
2024-04-17T01:20:31.535Z,83.61
2024-04-17T01:21:03.952Z,82.90
2024-04-17T01:21:37.148Z,83.41
2024-04-17T01:22:09.153Z,83.16
2024-04-17T01:22:41.908Z,84.12
2024-04-17T01:23:13.708Z,84.96
2024-04-17T01:23:50.875Z,84.91
2024-04-17T01:24:23.107Z,84.83
2024-04-17T01:24:54.953Z,85.71
2024-04-17T01:25:26.824Z,85.17
2024-04-17T01:25:59.522Z,84.93
2024-04-17T01:26:33.549Z,85.00
2024-04-17T01:27:05.297Z,84.23
2024-04-17T01:27:37.348Z,84.66
2024-04-17T01:28:09.950Z,84.74
2024-04-17T01:28:43.804Z,83.69
2024-04-17T01:29:15.826Z,84.32
2024-04-17T01:29:47.940Z,83.79
2024-04-17T01:30:20.485Z,84.05
2024-04-17T01:30:53.797Z,84.09
2024-04-17T01:31:27.236Z,84.62
2024-04-17T01:32:00.822Z,84.00
2024-04-17T01:32:33.265Z,84.42
2024-04-17T01:33:05.568Z,83.70
2024-04-17T01:33:37.816Z,84.78
2024-04-17T01:34:11.264Z,85.30
2024-04-17T01:34:45.642Z,85.08
2024-04-17T01:35:17.401Z,84.88
2024-04-17T01:35:49.327Z,85.48
2024-04-17T01:36:21.289Z,85.16
2024-04-17T01:36:53.395Z,85.50
2024-04-17T01:37:26.745Z,85.48
2024-04-17T01:37:58.803Z,84.84
2024-04-17T01:38:30.952Z,85.32
2024-04-17T01:39:02.974Z,84.13
2024-04-17T01:39:35.620Z,84.77
2024-04-17T01:40:08.168Z,84.08
2024-04-17T01:40:40.586Z,85.00
2024-04-17T01:41:12.979Z,84.50
2024-04-17T01:41:44.787Z,85.37
2024-04-17T01:42:19.866Z,85.57
2024-04-17T01:42:51.856Z,84.64
2024-04-17T01:43:25.625Z,84.85
2024-04-17T01:43:58.139Z,84.47
2024-04-17T01:44:30.674Z,84.83
2024-04-17T01:45:02.679Z,85.40
2024-04-17T01:45:34.414Z,84.96
2024-04-17T01:46:07.885Z,85.71
2024-04-17T01:46:41.175Z,85.74
2024-04-17T01:47:13.106Z,85.48
2024-04-17T01:47:45.228Z,85.42
2024-04-17T01:48:17.361Z,85.48
2024-04-17T01:48:49.512Z,84.95
2024-04-17T01:49:21.359Z,85.17
2024-04-17T01:49:53.797Z,85.27
2024-04-17T01:50:29.136Z,85.03
2024-04-17T01:51:00.860Z,85.45
2024-04-17T01:51:33.628Z,85.70
2024-04-17T01:52:05.919Z,85.92
2024-04-17T01:52:38.352Z,86.35
2024-04-17T01:53:10.135Z,86.51
2024-04-17T01:53:41.901Z,86.44
2024-04-17T01:54:13.690Z,86.52
2024-04-17T01:54:45.699Z,86.74
2024-04-17T01:55:17.444Z,86.29
2024-04-17T01:55:49.477Z,86.03
2024-04-17T01:56:21.622Z,86.54
2024-04-17T01:56:54.154Z,86.18
2024-04-17T01:57:27.045Z,85.74
2024-04-17T01:57:59.128Z,86.00
2024-04-17T01:58:31.591Z,85.42
2024-04-17T01:59:04.540Z,85.68
2024-04-17T01:59:36.928Z,86.29
2024-04-17T02:00:09.542Z,86.66
2024-04-17T02:00:47.982Z,86.55
2024-04-17T02:01:19.778Z,86.35
2024-04-17T02:01:52.451Z,86.54
2024-04-17T02:02:25.520Z,86.57
2024-04-17T02:02:59.226Z,86.61
2024-04-17T02:03:33.174Z,86.66
2024-04-17T02:04:05.970Z,85.59
2024-04-17T02:04:37.730Z,86.09
2024-04-17T02:05:09.424Z,86.29
2024-04-17T02:05:41.174Z,85.14
2024-04-17T02:06:13.667Z,85.52
2024-04-17T02:06:45.683Z,85.53
2024-04-17T02:07:17.617Z,85.01
2024-04-17T02:07:49.776Z,85.54
2024-04-17T02:08:22.242Z,84.77
2024-04-17T02:08:54.159Z,85.12
2024-04-17T02:09:25.919Z,86.07
2024-04-17T02:09:59.212Z,85.83
2024-04-17T02:10:31.051Z,86.14
2024-04-17T02:11:04.209Z,86.18
2024-04-17T02:11:36.720Z,86.20
2024-04-17T02:12:09.645Z,85.19
2024-04-17T02:12:42.222Z,85.25
2024-04-17T02:13:13.954Z,85.85
2024-04-17T02:13:46.583Z,85.86
2024-04-17T02:14:19.169Z,85.60
2024-04-17T02:14:52.430Z,85.80
2024-04-17T02:15:26.101Z,85.16
2024-04-17T02:16:04.877Z,86.08
2024-04-17T02:16:36.843Z,85.99
2024-04-17T02:17:08.697Z,85.68
2024-04-17T02:17:41.538Z,85.92
2024-04-17T02:18:13.537Z,85.23
2024-04-17T02:18:45.633Z,85.66
2024-04-17T02:19:18.304Z,85.23
2024-04-17T02:19:50.172Z,85.76
2024-04-17T02:20:22.636Z,85.10
2024-04-17T02:20:54.462Z,85.25
2024-04-17T02:21:26.209Z,85.05
2024-04-17T02:21:58.942Z,85.35
2024-04-17T02:22:30.757Z,85.06
2024-04-17T02:23:02.879Z,85.04
2024-04-17T02:23:34.703Z,84.91
2024-04-17T02:24:09.012Z,84.92
2024-04-17T02:24:40.841Z,85.15
2024-04-17T02:25:13.089Z,84.97
2024-04-17T02:25:46.868Z,84.94
2024-04-17T02:26:18.976Z,84.54
2024-04-17T02:26:51.391Z,84.18
2024-04-17T02:27:23.283Z,84.24
2024-04-17T02:27:55.025Z,84.88
2024-04-17T02:28:47.081Z,84.82
2024-04-17T02:29:22.394Z,84.67
2024-04-17T02:29:54.199Z,84.98
2024-04-17T02:30:26.373Z,85.47
2024-04-17T02:30:58.155Z,85.61
2024-04-17T02:31:30.202Z,85.30
2024-04-17T02:32:02.835Z,86.72
2024-04-17T02:32:37.308Z,86.46
2024-04-17T02:33:09.960Z,86.18
2024-04-17T02:33:42.019Z,86.94
2024-04-17T02:34:14.142Z,86.68
2024-04-17T02:34:46.614Z,86.34
2024-04-17T02:35:21.898Z,86.22
2024-04-17T02:35:55.245Z,86.36
2024-04-17T02:36:27.247Z,86.69
2024-04-17T02:36:59.466Z,86.75
2024-04-17T02:37:31.587Z,86.15
2024-04-17T02:38:03.379Z,86.00
2024-04-17T02:38:36.607Z,84.75
2024-04-17T02:39:08.425Z,86.16
2024-04-17T02:39:40.506Z,86.52
2024-04-17T02:40:12.400Z,87.83
2024-04-17T02:40:44.874Z,86.82
2024-04-17T02:41:16.828Z,87.25
2024-04-17T02:41:50.851Z,87.39
2024-04-17T02:42:22.571Z,86.29
2024-04-17T02:42:55.030Z,85.63
2024-04-17T02:43:27.361Z,85.01
2024-04-17T02:43:59.479Z,84.98
2024-04-17T02:44:33.202Z,84.71
2024-04-17T02:45:05.376Z,85.64
2024-04-17T02:45:37.090Z,83.77
2024-04-17T02:46:10.466Z,83.79
2024-04-17T02:46:42.344Z,83.62
2024-04-17T02:47:14.500Z,84.21
2024-04-17T02:47:46.826Z,82.34
2024-04-17T02:48:18.691Z,82.09
2024-04-17T02:48:50.450Z,82.29
2024-04-17T02:49:22.757Z,82.91
2024-04-17T02:49:54.651Z,83.35
2024-04-17T02:50:26.848Z,83.86
2024-04-17T02:50:59.031Z,82.47
2024-04-17T02:51:31.439Z,83.26
2024-04-17T02:52:03.359Z,83.16
2024-04-17T02:52:38.594Z,83.21
2024-04-17T02:53:10.718Z,82.88
2024-04-17T02:53:42.521Z,83.78
2024-04-17T02:54:14.563Z,82.59
2024-04-17T02:54:46.316Z,83.07
2024-04-17T02:55:18.652Z,82.44
2024-04-17T02:55:50.457Z,83.65
2024-04-17T02:56:24.122Z,83.71
2024-04-17T02:56:55.915Z,83.15
2024-04-17T02:57:27.897Z,82.45
2024-04-17T02:58:00.714Z,81.86
2024-04-17T02:58:35.995Z,82.34
2024-04-17T02:59:08.059Z,81.66
2024-04-17T02:59:39.837Z,81.80
2024-04-17T03:00:12.060Z,81.57
2024-04-17T03:00:44.832Z,82.13
2024-04-17T03:01:17.792Z,81.93
2024-04-17T03:01:50.266Z,81.34
2024-04-17T03:02:22.624Z,81.50
2024-04-17T03:02:56.032Z,82.07
2024-04-17T03:03:29.536Z,81.61
2024-04-17T03:04:02.186Z,81.28
2024-04-17T03:04:34.076Z,81.84
2024-04-17T03:05:06.195Z,82.31
2024-04-17T03:05:38.424Z,81.77
2024-04-17T03:06:10.283Z,82.04
2024-04-17T03:06:43.817Z,81.35
2024-04-17T03:07:16.861Z,80.85
2024-04-17T03:07:48.662Z,81.80
2024-04-17T03:08:20.907Z,81.74
2024-04-17T03:08:53.302Z,81.70
2024-04-17T03:09:25.021Z,81.45
2024-04-17T03:09:57.793Z,81.58
2024-04-17T03:10:29.618Z,81.07
2024-04-17T03:11:02.365Z,81.23
2024-04-17T03:11:35.678Z,81.04
2024-04-17T03:12:07.893Z,81.12
2024-04-17T03:12:39.960Z,81.99
2024-04-17T03:13:11.841Z,81.50
2024-04-17T03:13:43.655Z,82.17
2024-04-17T03:14:15.581Z,81.71
2024-04-17T03:14:47.380Z,82.07
2024-04-17T03:15:19.224Z,82.09
2024-04-17T03:15:51.585Z,81.88
2024-04-17T03:16:26.625Z,81.31
2024-04-17T03:16:58.457Z,81.99
2024-04-17T03:17:31.276Z,80.85
2024-04-17T03:18:03.210Z,80.34
2024-04-17T03:18:35.583Z,81.37
2024-04-17T03:19:07.562Z,81.25
2024-04-17T03:19:39.506Z,81.46
2024-04-17T03:20:11.319Z,80.79
2024-04-17T03:20:44.693Z,80.75
2024-04-17T03:21:16.419Z,81.26
2024-04-17T03:21:49.531Z,80.61
2024-04-17T03:22:21.851Z,79.91
2024-04-17T03:22:55.780Z,80.01
2024-04-17T03:23:28.572Z,79.60
2024-04-17T03:24:01.476Z,79.71
2024-04-17T03:24:35.015Z,79.96
2024-04-17T03:25:07.827Z,79.96
2024-04-17T03:25:39.987Z,79.78
2024-04-17T03:26:12.032Z,80.41
2024-04-17T03:26:47.988Z,80.41
2024-04-17T03:27:20.038Z,80.02
2024-04-17T03:27:51.865Z,79.04
2024-04-17T03:28:24.891Z,79.52
2024-04-17T03:28:56.726Z,78.88
2024-04-17T03:29:28.999Z,80.32
2024-04-17T03:30:02.037Z,81.01
2024-04-17T03:30:33.979Z,81.40
2024-04-17T03:31:06.114Z,80.67
2024-04-17T03:31:38.240Z,80.65
2024-04-17T03:32:10.424Z,79.79
2024-04-17T03:32:43.939Z,79.85
2024-04-17T03:33:15.849Z,80.61
2024-04-17T03:34:07.767Z,80.16
2024-04-17T03:34:39.642Z,80.98
2024-04-17T03:35:11.828Z,80.15
2024-04-17T03:35:54.150Z,80.63
2024-04-17T03:36:27.865Z,81.61
2024-04-17T03:36:59.579Z,81.26
2024-04-17T03:37:31.558Z,82.15
2024-04-17T03:38:03.635Z,81.72
2024-04-17T03:38:35.764Z,81.59
2024-04-17T03:39:08.993Z,82.39
2024-04-17T03:39:41.935Z,82.17
2024-04-17T03:40:13.995Z,82.03
2024-04-17T03:40:45.818Z,82.67
2024-04-17T03:41:17.988Z,82.20
2024-04-17T03:41:51.036Z,82.36
2024-04-17T03:42:23.717Z,82.82
2024-04-17T03:42:55.657Z,83.12
2024-04-17T03:43:27.960Z,83.05
2024-04-17T03:44:00.124Z,82.89
2024-04-17T03:44:32.346Z,82.50
2024-04-17T03:45:04.999Z,82.99
2024-04-17T03:45:36.948Z,82.29
2024-04-17T03:46:10.389Z,82.80
2024-04-17T03:46:43.041Z,82.63
2024-04-17T03:47:14.889Z,83.14
2024-04-17T03:47:48.124Z,83.17
2024-04-17T03:48:19.967Z,82.83
2024-04-17T03:48:52.745Z,82.37
2024-04-17T03:49:25.966Z,82.44
2024-04-17T03:50:05.886Z,82.07
2024-04-17T03:50:37.610Z,82.56
2024-04-17T03:51:09.415Z,82.06
2024-04-17T03:51:41.714Z,82.71
2024-04-17T03:52:13.799Z,82.80
2024-04-17T03:52:45.566Z,82.41
2024-04-17T03:53:17.329Z,82.02
2024-04-17T03:53:50.656Z,82.15
2024-04-17T03:54:24.513Z,83.92
2024-04-17T03:54:58.179Z,83.25
2024-04-17T03:55:31.801Z,83.06
2024-04-17T03:56:03.702Z,83.29
2024-04-17T03:56:35.986Z,83.83
2024-04-17T03:57:07.946Z,83.92
2024-04-17T03:57:39.993Z,84.63
2024-04-17T03:58:14.051Z,84.72
2024-04-17T03:58:47.218Z,83.77
2024-04-17T03:59:18.962Z,84.70
2024-04-17T03:59:52.620Z,84.79
2024-04-17T04:00:26.459Z,84.88
2024-04-17T04:00:58.459Z,85.17
2024-04-17T04:01:34.939Z,85.17
2024-04-17T04:02:10.815Z,85.85
2024-04-17T04:02:44.826Z,84.95
2024-04-17T04:03:17.165Z,83.86
2024-04-17T04:04:08.901Z,84.31
2024-04-17T04:04:41.283Z,84.38
2024-04-17T04:05:14.748Z,84.56
2024-04-17T04:05:46.832Z,84.56
2024-04-17T04:06:18.916Z,84.19
2024-04-17T04:06:50.678Z,82.36
2024-04-17T04:07:24.135Z,82.22
2024-04-17T04:07:55.955Z,81.38
2024-04-17T04:08:28.872Z,80.59
2024-04-17T04:09:00.572Z,80.01
2024-04-17T04:09:37.802Z,79.65
2024-04-17T04:10:09.942Z,80.31
2024-04-17T04:10:42.256Z,80.40
2024-04-17T04:11:14.765Z,80.40
2024-04-17T04:11:47.032Z,80.16
2024-04-17T04:12:19.244Z,79.46
2024-04-17T04:12:51.253Z,78.77
2024-04-17T04:13:24.714Z,78.95
2024-04-17T04:13:56.547Z,79.27
2024-04-17T04:14:29.381Z,79.00
2024-04-17T04:15:02.591Z,80.38
2024-04-17T04:15:34.450Z,79.48
2024-04-17T04:16:08.182Z,78.58
2024-04-17T04:16:39.983Z,78.81
2024-04-17T04:17:11.924Z,78.62
2024-04-17T04:17:45.382Z,79.33
2024-04-17T04:18:19.157Z,79.64
2024-04-17T04:18:50.965Z,79.60
2024-04-17T04:19:24.251Z,79.55
2024-04-17T04:20:16.386Z,78.14
2024-04-17T04:20:48.130Z,77.95
2024-04-17T04:21:19.836Z,78.21
2024-04-17T04:21:51.967Z,77.97
2024-04-17T04:22:25.916Z,79.09
2024-04-17T04:22:58.017Z,78.92
2024-04-17T04:23:30.879Z,79.84
2024-04-17T04:24:03.430Z,79.45
2024-04-17T04:24:35.764Z,77.83
2024-04-17T04:25:10.760Z,79.10
2024-04-17T04:25:42.836Z,79.34
2024-04-17T04:26:14.563Z,79.29
2024-04-17T04:26:46.642Z,79.90
2024-04-17T04:27:18.662Z,78.77
2024-04-17T04:27:50.635Z,79.67
2024-04-17T04:28:22.990Z,78.79
2024-04-17T04:28:54.974Z,79.36
2024-04-17T04:29:28.875Z,79.14
2024-04-17T04:30:01.335Z,79.06
2024-04-17T04:30:37.679Z,79.93
2024-04-17T04:31:10.988Z,80.04
2024-04-17T04:31:44.402Z,79.50
2024-04-17T04:32:16.237Z,78.71
2024-04-17T04:32:48.081Z,78.44
2024-04-17T04:33:20.979Z,77.13
2024-04-17T04:33:52.839Z,77.60
2024-04-17T04:34:27.022Z,77.63
2024-04-17T04:34:59.073Z,77.05
2024-04-17T04:35:30.847Z,77.29
2024-04-17T04:36:02.645Z,76.04
2024-04-17T04:36:34.660Z,76.56
2024-04-17T04:37:06.479Z,76.43
2024-04-17T04:37:38.239Z,77.97
2024-04-17T04:38:09.943Z,78.74
2024-04-17T04:38:42.261Z,77.55
2024-04-17T04:39:14.278Z,77.45
2024-04-17T04:40:06.746Z,77.88
2024-04-17T04:40:39.997Z,77.26
2024-04-17T04:41:13.365Z,77.36
2024-04-17T04:41:45.324Z,77.27
2024-04-17T04:42:19.212Z,75.92
2024-04-17T04:42:50.931Z,76.30
2024-04-17T04:43:23.820Z,79.38
2024-04-17T04:43:58.136Z,80.02
2024-04-17T04:44:30.012Z,79.78
2024-04-17T04:45:02.438Z,77.45
2024-04-17T04:45:34.401Z,76.25
2024-04-17T04:46:07.477Z,77.09
2024-04-17T04:46:39.530Z,76.07
2024-04-17T04:47:12.362Z,77.11
2024-04-17T04:47:45.214Z,76.93
2024-04-17T04:48:17.140Z,77.17
2024-04-17T04:48:48.924Z,75.98
2024-04-17T04:49:20.897Z,74.97
2024-04-17T04:49:54.752Z,74.72
2024-04-17T04:50:26.571Z,74.38
2024-04-17T04:51:01.619Z,74.07
2024-04-17T04:51:33.371Z,74.90
2024-04-17T04:52:06.683Z,75.25
2024-04-17T04:52:40.023Z,75.76
2024-04-17T04:53:12.422Z,76.03
2024-04-17T04:53:44.110Z,75.53
2024-04-17T04:54:15.878Z,74.87
2024-04-17T04:54:47.673Z,74.39
2024-04-17T04:55:19.747Z,75.29
2024-04-17T04:55:59.557Z,74.36
2024-04-17T04:56:31.711Z,74.55
2024-04-17T04:57:05.084Z,74.07
2024-04-17T04:57:37.225Z,74.71
2024-04-17T04:58:09.701Z,74.02
2024-04-17T04:58:44.196Z,73.73
2024-04-17T04:59:17.223Z,74.07
2024-04-17T04:59:50.293Z,73.53
2024-04-17T05:00:22.210Z,74.34
2024-04-17T05:00:54.698Z,74.53
2024-04-17T05:01:26.648Z,74.30
2024-04-17T05:01:59.012Z,74.39
2024-04-17T05:02:31.894Z,74.62
2024-04-17T05:03:05.459Z,76.07
2024-04-17T05:03:37.323Z,75.23
2024-04-17T05:04:09.456Z,74.37
2024-04-17T05:04:43.509Z,74.05
2024-04-17T05:05:15.333Z,73.62
2024-04-17T05:05:48.868Z,74.45
2024-04-17T05:06:20.838Z,73.88
2024-04-17T05:06:52.583Z,74.46
2024-04-17T05:07:26.516Z,73.78
2024-04-17T05:07:59.902Z,73.26
2024-04-17T05:08:33.145Z,73.79
2024-04-17T05:09:05.091Z,74.11
2024-04-17T05:09:37.687Z,75.27
2024-04-17T05:10:10.928Z,76.90
2024-04-17T05:10:43.294Z,75.61
2024-04-17T05:11:15.215Z,74.74
2024-04-17T05:11:47.544Z,74.92
2024-04-17T05:12:19.512Z,74.56
2024-04-17T05:12:51.871Z,74.43
2024-04-17T05:13:25.371Z,73.44
2024-04-17T05:13:57.234Z,74.07
2024-04-17T05:14:29.034Z,73.39
2024-04-17T05:15:01.007Z,74.21
2024-04-17T05:15:35.311Z,74.37
2024-04-17T05:16:09.751Z,74.89
2024-04-17T05:16:42.745Z,74.31
2024-04-17T05:17:14.886Z,74.13
2024-04-17T05:17:47.975Z,75.07
2024-04-17T05:18:21.482Z,74.71
2024-04-17T05:18:54.155Z,74.57
2024-04-17T05:19:25.949Z,73.60
2024-04-17T05:19:58.562Z,76.13
2024-04-17T05:20:32.158Z,74.33
2024-04-17T05:21:03.935Z,75.66
2024-04-17T05:21:36.194Z,76.30
2024-04-17T05:22:08.992Z,75.49
2024-04-17T05:22:41.371Z,75.42
2024-04-17T05:23:13.743Z,75.39
2024-04-17T05:23:46.148Z,75.12
2024-04-17T05:24:18.109Z,74.92
2024-04-17T05:24:50.123Z,74.33
2024-04-17T05:25:46.561Z,74.41
2024-04-17T05:26:19.216Z,74.94
2024-04-17T05:27:12.032Z,74.16
2024-04-17T05:27:43.760Z,73.81
2024-04-17T05:28:15.817Z,73.56
2024-04-17T05:28:47.601Z,74.20
2024-04-17T05:29:20.641Z,73.72
2024-04-17T05:29:54.418Z,73.69
2024-04-17T05:30:26.232Z,74.42
2024-04-17T05:30:59.594Z,73.31
2024-04-17T05:31:32.378Z,73.55
2024-04-17T05:32:07.173Z,72.40
2024-04-17T05:32:39.332Z,71.40
2024-04-17T05:33:11.391Z,71.22
2024-04-17T05:33:43.786Z,71.94
2024-04-17T05:34:15.553Z,71.40
2024-04-17T05:34:49.311Z,71.06
2024-04-17T05:35:21.073Z,70.58
2024-04-17T05:35:53.803Z,70.37
2024-04-17T05:36:25.519Z,70.92
2024-04-17T05:36:57.457Z,71.41
2024-04-17T05:37:29.899Z,72.08
2024-04-17T05:38:02.532Z,70.77
2024-04-17T05:38:34.728Z,70.80
2024-04-17T05:39:06.753Z,71.22
2024-04-17T05:39:41.302Z,71.06
2024-04-17T05:40:14.150Z,70.57
2024-04-17T05:40:49.061Z,68.70
2024-04-17T05:41:20.860Z,70.07
2024-04-17T05:41:52.923Z,70.27
2024-04-17T05:42:28.237Z,69.84
2024-04-17T05:43:00.812Z,68.55
2024-04-17T05:43:32.941Z,67.90
2024-04-17T05:44:05.152Z,67.09
2024-04-17T05:44:38.522Z,66.24
2024-04-17T05:45:10.416Z,66.45
2024-04-17T05:45:46.479Z,67.35
2024-04-17T05:46:18.447Z,67.27
2024-04-17T05:46:50.623Z,66.19
2024-04-17T05:47:22.674Z,65.70
2024-04-17T05:47:54.873Z,65.60
2024-04-17T05:48:27.315Z,64.64
2024-04-17T05:48:59.274Z,63.63
2024-04-17T05:49:31.181Z,63.43
2024-04-17T05:50:08.653Z,62.38
2024-04-17T05:50:42.166Z,62.82
2024-04-17T05:51:15.336Z,63.05
2024-04-17T05:51:47.110Z,64.81
2024-04-17T05:52:20.498Z,64.37
2024-04-17T05:52:52.328Z,63.56
2024-04-17T05:53:26.747Z,62.74
2024-04-17T05:53:58.732Z,63.43
2024-04-17T05:54:31.608Z,63.28
2024-04-17T05:55:04.186Z,64.73
2024-04-17T05:55:40.012Z,66.20
2024-04-17T05:56:12.321Z,66.39
2024-04-17T05:56:45.061Z,64.96
2024-04-17T05:57:16.898Z,63.41
2024-04-17T05:57:49.403Z,62.33
2024-04-17T05:58:21.125Z,60.96
2024-04-17T05:58:53.356Z,60.87
2024-04-17T05:59:26.708Z,60.83
2024-04-17T06:00:01.949Z,61.22
2024-04-17T06:00:58.674Z,60.05
2024-04-17T06:01:34.068Z,60.20
2024-04-17T06:02:06.113Z,59.73
2024-04-17T06:02:39.170Z,58.94
2024-04-17T06:03:11.160Z,60.67
2024-04-17T06:03:43.095Z,60.92
2024-04-17T06:04:15.845Z,60.23
2024-04-17T06:04:47.682Z,61.87
2024-04-17T06:05:21.417Z,61.01
2024-04-17T06:05:53.241Z,60.52
2024-04-17T06:06:25.319Z,61.34
2024-04-17T06:06:57.112Z,64.03
2024-04-17T06:07:29.967Z,62.97
2024-04-17T06:08:01.889Z,64.26
2024-04-17T06:08:34.437Z,64.64
2024-04-17T06:09:06.937Z,66.72
2024-04-17T06:09:39.461Z,65.64
2024-04-17T06:10:12.761Z,68.33
2024-04-17T06:10:47.059Z,66.83
2024-04-17T06:11:20.189Z,68.29
2024-04-17T06:11:52.240Z,66.84
2024-04-17T06:12:25.816Z,69.05
2024-04-17T06:12:59.907Z,68.71
2024-04-17T06:13:32.781Z,68.33
2024-04-17T06:14:09.544Z,67.36
2024-04-17T06:14:42.777Z,67.11
2024-04-17T06:15:15.564Z,66.99
2024-04-17T06:15:48.990Z,66.57
2024-04-17T06:16:20.977Z,67.13
2024-04-17T06:16:54.384Z,67.23
2024-04-17T06:17:26.310Z,66.71
2024-04-17T06:18:00.577Z,67.05
2024-04-17T06:18:32.542Z,67.18
2024-04-17T06:19:04.985Z,66.48
2024-04-17T06:19:38.257Z,66.59
2024-04-17T06:20:10.357Z,66.21
2024-04-17T06:20:42.468Z,65.57
2024-04-17T06:21:15.399Z,65.53
2024-04-17T06:21:47.697Z,66.04
2024-04-17T06:22:19.811Z,68.36
2024-04-17T06:22:51.872Z,66.89
2024-04-17T06:23:26.239Z,66.34
2024-04-17T06:23:58.254Z,65.77
2024-04-17T06:24:30.428Z,64.56
2024-04-17T06:25:04.882Z,65.11
2024-04-17T06:25:42.127Z,65.62
2024-04-17T06:26:13.946Z,65.68
2024-04-17T06:26:47.268Z,66.79
2024-04-17T06:27:22.535Z,65.19
2024-04-17T06:27:56.085Z,65.93
2024-04-17T06:28:28.016Z,65.68
2024-04-17T06:29:00.585Z,66.48
2024-04-17T06:29:33.438Z,66.79
2024-04-17T06:30:05.747Z,66.85
2024-04-17T06:30:38.950Z,65.48
2024-04-17T06:31:10.992Z,65.34
2024-04-17T06:31:46.095Z,66.63
2024-04-17T06:32:18.275Z,66.08
2024-04-17T06:32:50.594Z,66.64
2024-04-17T06:33:22.615Z,67.12
2024-04-17T06:33:54.701Z,67.47
2024-04-17T06:34:26.969Z,67.98
2024-04-17T06:34:59.632Z,68.13
2024-04-17T06:35:34.455Z,68.93
2024-04-17T06:36:06.592Z,68.38
2024-04-17T06:36:39.273Z,67.81
2024-04-17T06:37:11.296Z,68.31
2024-04-17T06:37:46.567Z,67.68
2024-04-17T06:38:19.006Z,67.46
2024-04-17T06:38:50.829Z,67.28
2024-04-17T06:39:45.197Z,67.82
2024-04-17T06:40:17.510Z,67.21
2024-04-17T06:40:51.023Z,67.33
2024-04-17T06:41:28.652Z,67.07
2024-04-17T06:42:05.800Z,66.52
2024-04-17T06:42:37.579Z,68.39
2024-04-17T06:43:09.683Z,69.62
2024-04-17T06:43:43.546Z,69.46
2024-04-17T06:44:17.378Z,70.06
2024-04-17T06:44:49.183Z,71.63
2024-04-17T06:45:21.416Z,69.90
2024-04-17T06:45:56.449Z,69.60
2024-04-17T06:46:29.569Z,69.30
2024-04-17T06:47:01.843Z,70.81
2024-04-17T06:47:34.304Z,70.48
2024-04-17T06:48:08.208Z,70.56
2024-04-17T06:48:40.675Z,70.55
2024-04-17T06:49:13.726Z,70.58
2024-04-17T06:50:05.870Z,71.38
2024-04-17T06:50:37.926Z,71.75
2024-04-17T06:51:12.794Z,71.01
2024-04-17T06:51:45.262Z,72.03
2024-04-17T06:52:17.620Z,70.74
2024-04-17T06:52:49.663Z,70.29
2024-04-17T06:53:21.722Z,71.76
2024-04-17T06:53:54.139Z,71.45
2024-04-17T06:54:26.932Z,72.21
2024-04-17T06:54:59.938Z,70.93
2024-04-17T06:55:33.759Z,70.06
2024-04-17T06:56:05.922Z,70.72
2024-04-17T06:56:37.640Z,69.75
2024-04-17T06:57:09.446Z,69.11
2024-04-17T06:57:42.612Z,68.91
2024-04-17T06:58:15.428Z,68.59
2024-04-17T06:58:48.256Z,67.87
2024-04-17T06:59:20.022Z,68.53
2024-04-17T06:59:51.984Z,68.96
2024-04-17T07:00:32.292Z,68.34
2024-04-17T07:01:04.150Z,68.16
2024-04-17T07:01:36.085Z,68.36
2024-04-17T07:02:08.816Z,68.42
2024-04-17T07:02:46.434Z,68.38
2024-04-17T07:03:23.996Z,67.99
2024-04-17T07:03:56.160Z,67.86
2024-04-17T07:04:29.507Z,68.57
2024-04-17T07:05:01.367Z,67.95